sensor_id;sensor_type;location;lat;lon;timestamp;pressure;altitude;pressure_sealevel;temperature;humidity
23164;BME280;31429;42.674;23.350;2023-06-26T00:00:49;94569.00;;;20.50;100.00
23164;BME280;31429;42.674;23.350;2023-06-26T00:01:49;94569.16;;;20.48;100.00
23164;BME280;31429;42.674;23.350;2023-06-26T00:02:50;94565.50;;;20.40;100.00
23164;BME280;31429;42.674;23.350;2023-06-26T00:03:52;94568.34;;;20.37;100.00
23164;BME280;31429;42.674;23.350;2023-06-26T00:04:53;94561.25;;;20.39;100.00
23164;BME280;31429;42.674;23.350;2023-06-26T00:05:54;94567.75;;;20.33;100.00
23164;BME280;31429;42.674;23.350;2023-06-26T00:06:54;94564.44;;;20.42;100.00
23164;BME280;31429;42.674;23.350;2023-06-26T00:07:55;94563.00;;;20.38;100.00
23164;BME280;31429;42.674;23.350;2023-06-26T00:08:56;94566.69;;;20.25;100.00
23164;BME280;31429;42.674;23.350;2023-06-26T00:09:57;94555.69;;;20.32;100.00
23164;BME280;31429;42.674;23.350;2023-06-26T00:10:59;94561.63;;;20.34;100.00
23164;BME280;31429;42.674;23.350;2023-06-26T00:11:59;94560.19;;;20.30;100.00
23164;BME280;31429;42.674;23.350;2023-06-26T00:13:00;94557.81;;;20.38;100.00
23164;BME280;31429;42.674;23.350;2023-06-26T00:14:01;94557.81;;;20.38;100.00
23164;BME280;31429;42.674;23.350;2023-06-26T00:15:02;94564.78;;;20.38;100.00
23164;BME280;31429;42.674;23.350;2023-06-26T00:16:03;94557.88;;;20.59;100.00
23164;BME280;31429;42.674;23.350;2023-06-26T00:17:04;94567.66;;;20.35;100.00
23164;BME280;31429;42.674;23.350;2023-06-26T00:18:05;94563.47;;;20.43;100.00
23164;BME280;31429;42.674;23.350;2023-06-26T00:19:07;94565.13;;;20.44;100.00
23164;BME280;31429;42.674;23.350;2023-06-26T00:20:09;94564.22;;;20.34;100.00
23164;BME280;31429;42.674;23.350;2023-06-26T00:21:10;94566.31;;;20.29;100.00
23164;BME280;31429;42.674;23.350;2023-06-26T00:22:11;94569.50;;;20.33;100.00
23164;BME280;31429;42.674;23.350;2023-06-26T00:23:11;94557.50;;;20.32;100.00
23164;BME280;31429;42.674;23.350;2023-06-26T00:24:13;94559.13;;;20.33;100.00
23164;BME280;31429;42.674;23.350;2023-06-26T00:25:14;94557.72;;;20.40;100.00
23164;BME280;31429;42.674;23.350;2023-06-26T00:26:15;94562.66;;;20.43;100.00
23164;BME280;31429;42.674;23.350;2023-06-26T00:27:15;94562.19;;;20.49;100.00
23164;BME280;31429;42.674;23.350;2023-06-26T00:28:16;94561.63;;;20.34;100.00
23164;BME280;31429;42.674;23.350;2023-06-26T00:29:16;94566.44;;;20.39;100.00
23164;BME280;31429;42.674;23.350;2023-06-26T00:30:17;94563.97;;;20.37;100.00
23164;BME280;31429;42.674;23.350;2023-06-26T00:31:18;94565.72;;;20.48;100.00
23164;BME280;31429;42.674;23.350;2023-06-26T00:32:19;94561.81;;;20.53;100.00
23164;BME280;31429;42.674;23.350;2023-06-26T00:33:19;94565.59;;;20.38;100.00
23164;BME280;31429;42.674;23.350;2023-06-26T00:34:21;94560.16;;;20.41;100.00
23164;BME280;31429;42.674;23.350;2023-06-26T00:35:22;94557.59;;;20.30;100.00
23164;BME280;31429;42.674;23.350;2023-06-26T00:36:22;94557.59;;;20.30;100.00
23164;BME280;31429;42.674;23.350;2023-06-26T00:37:23;94555.00;;;20.30;100.00
23164;BME280;31429;42.674;23.350;2023-06-26T00:38:24;94552.84;;;20.46;100.00
23164;BME280;31429;42.674;23.350;2023-06-26T00:39:25;94554.28;;;20.39;100.00
23164;BME280;31429;42.674;23.350;2023-06-26T00:40:26;94556.44;;;20.34;100.00
23164;BME280;31429;42.674;23.350;2023-06-26T00:41:27;94552.63;;;20.38;100.00
23164;BME280;31429;42.674;23.350;2023-06-26T00:42:28;94555.69;;;20.32;100.00
23164;BME280;31429;42.674;23.350;2023-06-26T00:43:30;94553.25;;;20.31;100.00
23164;BME280;31429;42.674;23.350;2023-06-26T00:44:30;94545.31;;;20.32;100.00
23164;BME280;31429;42.674;23.350;2023-06-26T00:45:31;94558.91;;;20.25;100.00
23164;BME280;31429;42.674;23.350;2023-06-26T00:46:32;94544.84;;;20.27;100.00
23164;BME280;31429;42.674;23.350;2023-06-26T00:47:33;94544.59;;;20.19;100.00
23164;BME280;31429;42.674;23.350;2023-06-26T00:48:34;94551.22;;;20.34;100.00
23164;BME280;31429;42.674;23.350;2023-06-26T00:49:36;94551.56;;;20.41;100.00
23164;BME280;31429;42.674;23.350;2023-06-26T00:50:36;94558.66;;;20.39;100.00
23164;BME280;31429;42.674;23.350;2023-06-26T00:51:37;94546.50;;;20.39;100.00
23164;BME280;31429;42.674;23.350;2023-06-26T00:52:38;94547.31;;;20.40;100.00
23164;BME280;31429;42.674;23.350;2023-06-26T00:53:39;94547.16;;;20.52;100.00
23164;BME280;31429;42.674;23.350;2023-06-26T00:54:40;94546.72;;;20.36;100.00
23164;BME280;31429;42.674;23.350;2023-06-26T00:55:41;94547.63;;;20.46;100.00
23164;BME280;31429;42.674;23.350;2023-06-26T00:56:42;94542.34;;;20.48;100.00
23164;BME280;31429;42.674;23.350;2023-06-26T00:57:42;94541.88;;;20.43;100.00
23164;BME280;31429;42.674;23.350;2023-06-26T00:58:46;94537.28;;;20.35;100.00
23164;BME280;31429;42.674;23.350;2023-06-26T00:59:47;94538.50;;;20.31;100.00
23164;BME280;31429;42.674;23.350;2023-06-26T01:00:48;94541.56;;;20.25;100.00
23164;BME280;31429;42.674;23.350;2023-06-26T01:01:49;94538.47;;;20.20;100.00
23164;BME280;31429;42.674;23.350;2023-06-26T01:02:50;94530.13;;;20.28;100.00
23164;BME280;31429;42.674;23.350;2023-06-26T01:03:51;94528.94;;;20.32;100.00
23164;BME280;31429;42.674;23.350;2023-06-26T01:04:54;94532.94;;;20.25;100.00
23164;BME280;31429;42.674;23.350;2023-06-26T01:05:56;94537.41;;;20.23;100.00
23164;BME280;31429;42.674;23.350;2023-06-26T01:06:59;94534.22;;;20.19;100.00
23164;BME280;31429;42.674;23.350;2023-06-26T01:07:59;94527.16;;;20.10;100.00
23164;BME280;31429;42.674;23.350;2023-06-26T01:09:01;94526.44;;;20.19;100.00
23164;BME280;31429;42.674;23.350;2023-06-26T01:10:02;94524.22;;;20.15;100.00
23164;BME280;31429;42.674;23.350;2023-06-26T01:11:04;94524.28;;;20.24;100.00
23164;BME280;31429;42.674;23.350;2023-06-26T01:12:05;94524.22;;;20.15;100.00
23164;BME280;31429;42.674;23.350;2023-06-26T01:13:05;94525.16;;;20.25;100.00
23164;BME280;31429;42.674;23.350;2023-06-26T01:14:06;94526.91;;;20.35;100.00
23164;BME280;31429;42.674;23.350;2023-06-26T01:15:08;94527.47;;;20.39;100.00
23164;BME280;31429;42.674;23.350;2023-06-26T01:16:09;94521.22;;;20.41;100.00
23164;BME280;31429;42.674;23.350;2023-06-26T01:17:10;94521.25;;;20.30;100.00
23164;BME280;31429;42.674;23.350;2023-06-26T01:18:15;94529.03;;;20.30;100.00
23164;BME280;31429;42.674;23.350;2023-06-26T01:19:19;94517.47;;;20.23;100.00
23164;BME280;31429;42.674;23.350;2023-06-26T01:20:26;94521.09;;;20.21;100.00
23164;BME280;31429;42.674;23.350;2023-06-26T01:21:28;94523.16;;;20.28;100.00
23164;BME280;31429;42.674;23.350;2023-06-26T01:22:37;94517.00;;;20.18;100.00
23164;BME280;31429;42.674;23.350;2023-06-26T01:23:54;94526.69;;;20.05;100.00
23164;BME280;31429;42.674;23.350;2023-06-26T01:25:06;94529.91;;;19.97;100.00
23164;BME280;31429;42.674;23.350;2023-06-26T01:26:17;94519.28;;;20.00;100.00
23164;BME280;31429;42.674;23.350;2023-06-26T01:27:21;94521.88;;;20.00;100.00
23164;BME280;31429;42.674;23.350;2023-06-26T01:28:24;94520.59;;;19.95;100.00
23164;BME280;31429;42.674;23.350;2023-06-26T01:29:25;94516.56;;;19.91;100.00
23164;BME280;31429;42.674;23.350;2023-06-26T01:30:28;94519.41;;;19.88;100.00
23164;BME280;31429;42.674;23.350;2023-06-26T01:31:29;94516.09;;;19.97;100.00
23164;BME280;31429;42.674;23.350;2023-06-26T01:32:31;94517.41;;;19.91;100.00
23164;BME280;31429;42.674;23.350;2023-06-26T01:33:33;94513.03;;;19.92;100.00
23164;BME280;31429;42.674;23.350;2023-06-26T01:34:35;94507.84;;;20.03;100.00
23164;BME280;31429;42.674;23.350;2023-06-26T01:35:36;94503.94;;;19.97;100.00
23164;BME280;31429;42.674;23.350;2023-06-26T01:36:37;94507.59;;;20.06;100.00
23164;BME280;31429;42.674;23.350;2023-06-26T01:37:38;94500.88;;;20.03;100.00
23164;BME280;31429;42.674;23.350;2023-06-26T01:38:39;94499.81;;;19.95;100.00
23164;BME280;31429;42.674;23.350;2023-06-26T01:39:39;94504.28;;;19.93;100.00
23164;BME280;31429;42.674;23.350;2023-06-26T01:40:40;94499.72;;;19.85;100.00
23164;BME280;31429;42.674;23.350;2023-06-26T01:41:43;94504.66;;;19.88;100.00
23164;BME280;31429;42.674;23.350;2023-06-26T01:42:43;94496.63;;;19.91;100.00
23164;BME280;31429;42.674;23.350;2023-06-26T01:43:59;94501.38;;;19.86;100.00
23164;BME280;31429;42.674;23.350;2023-06-26T01:45:08;94498.53;;;19.78;100.00
23164;BME280;31429;42.674;23.350;2023-06-26T01:46:16;94503.72;;;19.67;100.00
23164;BME280;31429;42.674;23.350;2023-06-26T01:47:22;94503.16;;;19.64;100.00
23164;BME280;31429;42.674;23.350;2023-06-26T01:48:29;94497.72;;;19.67;100.00
23164;BME280;31429;42.674;23.350;2023-06-26T01:49:43;94495.69;;;19.59;100.00
23164;BME280;31429;42.674;23.350;2023-06-26T01:50:47;94496.06;;;19.55;100.00
23164;BME280;31429;42.674;23.350;2023-06-26T01:51:55;94499.81;;;19.50;100.00
23164;BME280;31429;42.674;23.350;2023-06-26T01:53:02;94490.50;;;19.48;100.00
23164;BME280;31429;42.674;23.350;2023-06-26T01:54:04;94492.28;;;19.59;100.00
23164;BME280;31429;42.674;23.350;2023-06-26T01:55:15;94489.94;;;19.67;100.00
23164;BME280;31429;42.674;23.350;2023-06-26T01:56:18;94483.56;;;19.60;100.00
23164;BME280;31429;42.674;23.350;2023-06-26T01:57:21;94494.63;;;19.50;100.00
23164;BME280;31429;42.674;23.350;2023-06-26T01:58:25;94491.81;;;19.65;100.00
23164;BME280;31429;42.674;23.350;2023-06-26T01:59:28;94492.41;;;19.68;100.00
23164;BME280;31429;42.674;23.350;2023-06-26T02:00:32;94491.72;;;19.55;100.00
23164;BME280;31429;42.674;23.350;2023-06-26T02:01:34;94490.88;;;19.55;100.00
23164;BME280;31429;42.674;23.350;2023-06-26T02:02:34;94492.03;;;19.50;100.00
23164;BME280;31429;42.674;23.350;2023-06-26T02:03:35;94491.81;;;19.54;100.00
23164;BME280;31429;42.674;23.350;2023-06-26T02:04:36;94485.47;;;19.58;100.00
23164;BME280;31429;42.674;23.350;2023-06-26T02:05:37;94491.81;;;19.54;100.00
23164;BME280;31429;42.674;23.350;2023-06-26T02:06:38;94488.75;;;19.48;100.00
23164;BME280;31429;42.674;23.350;2023-06-26T02:07:39;94489.59;;;19.49;100.00
23164;BME280;31429;42.674;23.350;2023-06-26T02:08:39;94496.53;;;19.48;100.00
23164;BME280;31429;42.674;23.350;2023-06-26T02:09:40;94487.47;;;19.43;100.00
23164;BME280;31429;42.674;23.350;2023-06-26T02:10:41;94487.56;;;19.41;100.00
23164;BME280;31429;42.674;23.350;2023-06-26T02:11:42;94489.22;;;19.42;100.00
23164;BME280;31429;42.674;23.350;2023-06-26T02:12:44;94490.50;;;19.48;100.00
23164;BME280;31429;42.674;23.350;2023-06-26T02:13:44;94498.75;;;19.42;100.00
23164;BME280;31429;42.674;23.350;2023-06-26T02:14:46;94499.50;;;19.44;100.00
23164;BME280;31429;42.674;23.350;2023-06-26T02:15:46;94497.13;;;19.52;100.00
23164;BME280;31429;42.674;23.350;2023-06-26T02:16:47;94500.78;;;19.49;100.00
23164;BME280;31429;42.674;23.350;2023-06-26T02:17:48;94504.06;;;19.52;100.00
23164;BME280;31429;42.674;23.350;2023-06-26T02:18:49;94501.72;;;19.48;100.00
23164;BME280;31429;42.674;23.350;2023-06-26T02:19:49;94496.91;;;19.44;100.00
23164;BME280;31429;42.674;23.350;2023-06-26T02:20:50;94502.31;;;19.41;100.00
23164;BME280;31429;42.674;23.350;2023-06-26T02:21:50;94496.28;;;19.63;100.00
23164;BME280;31429;42.674;23.350;2023-06-26T02:22:51;94496.91;;;19.55;100.00
23164;BME280;31429;42.674;23.350;2023-06-26T02:23:52;94495.09;;;19.56;100.00
23164;BME280;31429;42.674;23.350;2023-06-26T02:24:52;94507.13;;;19.57;100.00
23164;BME280;31429;42.674;23.350;2023-06-26T02:25:53;94501.25;;;19.55;100.00
23164;BME280;31429;42.674;23.350;2023-06-26T02:26:53;94507.59;;;19.62;100.00
23164;BME280;31429;42.674;23.350;2023-06-26T02:27:55;94504.28;;;19.93;100.00
23164;BME280;31429;42.674;23.350;2023-06-26T02:28:56;94508.41;;;19.84;100.00
23164;BME280;31429;42.674;23.350;2023-06-26T02:29:57;94504.75;;;19.98;100.00
23164;BME280;31429;42.674;23.350;2023-06-26T02:30:57;94503.13;;;19.97;100.00
23164;BME280;31429;42.674;23.350;2023-06-26T02:31:58;94505.25;;;19.81;100.00
23164;BME280;31429;42.674;23.350;2023-06-26T02:32:59;94504.44;;;19.80;100.00
23164;BME280;31429;42.674;23.350;2023-06-26T02:33:59;94514.09;;;19.78;100.00
23164;BME280;31429;42.674;23.350;2023-06-26T02:35:00;94507.97;;;19.79;100.00
23164;BME280;31429;42.674;23.350;2023-06-26T02:36:01;94515.16;;;19.76;100.00
23164;BME280;31429;42.674;23.350;2023-06-26T02:37:01;94516.13;;;19.75;100.00
23164;BME280;31429;42.674;23.350;2023-06-26T02:38:02;94507.84;;;19.81;100.00
23164;BME280;31429;42.674;23.350;2023-06-26T02:39:03;94516.91;;;19.75;100.00
23164;BME280;31429;42.674;23.350;2023-06-26T02:40:04;94516.69;;;19.67;100.00
23164;BME280;31429;42.674;23.350;2023-06-26T02:41:05;94516.44;;;19.70;100.00
23164;BME280;31429;42.674;23.350;2023-06-26T02:42:06;94517.50;;;19.68;100.00
23164;BME280;31429;42.674;23.350;2023-06-26T02:43:08;94517.28;;;19.71;100.00
23164;BME280;31429;42.674;23.350;2023-06-26T02:44:08;94511.97;;;19.83;100.00
23164;BME280;31429;42.674;23.350;2023-06-26T02:45:11;94513.97;;;19.80;100.00
23164;BME280;31429;42.674;23.350;2023-06-26T02:46:11;94515.16;;;19.76;100.00
23164;BME280;31429;42.674;23.350;2023-06-26T02:47:12;94508.41;;;19.84;100.00
23164;BME280;31429;42.674;23.350;2023-06-26T02:48:12;94504.06;;;19.96;100.00
23164;BME280;31429;42.674;23.350;2023-06-26T02:49:13;94514.56;;;19.83;100.00
23164;BME280;31429;42.674;23.350;2023-06-26T02:50:14;94511.38;;;19.80;100.00
23164;BME280;31429;42.674;23.350;2023-06-26T02:51:15;94506.66;;;19.85;100.00
23164;BME280;31429;42.674;23.350;2023-06-26T02:52:15;94510.78;;;19.87;100.00
23164;BME280;31429;42.674;23.350;2023-06-26T02:53:16;94515.88;;;19.89;100.00
23164;BME280;31429;42.674;23.350;2023-06-26T02:54:17;94513.75;;;19.83;100.00
23164;BME280;31429;42.674;23.350;2023-06-26T02:55:17;94508.56;;;19.72;100.00
23164;BME280;31429;42.674;23.350;2023-06-26T02:56:18;94512.22;;;19.69;100.00
23164;BME280;31429;42.674;23.350;2023-06-26T02:57:18;94509.72;;;19.68;100.00
23164;BME280;31429;42.674;23.350;2023-06-26T02:58:20;94513.53;;;19.64;100.00
23164;BME280;31429;42.674;23.350;2023-06-26T02:59:21;94514.69;;;19.60;100.00
23164;BME280;31429;42.674;23.350;2023-06-26T03:00:22;94508.56;;;19.61;100.00
23164;BME280;31429;42.674;23.350;2023-06-26T03:01:23;94508.81;;;19.58;100.00
23164;BME280;31429;42.674;23.350;2023-06-26T03:02:23;94506.66;;;19.52;100.00
23164;BME280;31429;42.674;23.350;2023-06-26T03:03:24;94513.03;;;19.47;100.00
23164;BME280;31429;42.674;23.350;2023-06-26T03:04:25;94511.03;;;19.51;100.00
23164;BME280;31429;42.674;23.350;2023-06-26T03:05:25;94516.81;;;19.55;100.00
23164;BME280;31429;42.674;23.350;2023-06-26T03:06:26;94511.25;;;19.59;100.00
23164;BME280;31429;42.674;23.350;2023-06-26T03:07:27;94520.69;;;19.49;100.00
23164;BME280;31429;42.674;23.350;2023-06-26T03:08:27;94509.13;;;19.53;100.00
23164;BME280;31429;42.674;23.350;2023-06-26T03:09:28;94519.16;;;19.46;100.00
23164;BME280;31429;42.674;23.350;2023-06-26T03:10:28;94522.91;;;19.42;100.00
23164;BME280;31429;42.674;23.350;2023-06-26T03:11:29;94516.09;;;19.52;100.00
23164;BME280;31429;42.674;23.350;2023-06-26T03:12:30;94519.16;;;19.46;100.00
23164;BME280;31429;42.674;23.350;2023-06-26T03:13:32;94514.09;;;19.45;100.00
23164;BME280;31429;42.674;23.350;2023-06-26T03:14:33;94515.97;;;19.54;100.00
23164;BME280;31429;42.674;23.350;2023-06-26T03:15:33;94519.16;;;19.58;100.00
23164;BME280;31429;42.674;23.350;2023-06-26T03:16:34;94513.63;;;19.51;100.00
23164;BME280;31429;42.674;23.350;2023-06-26T03:17:38;94512.22;;;19.58;100.00
23164;BME280;31429;42.674;23.350;2023-06-26T03:18:38;94512.47;;;19.55;100.00
23164;BME280;31429;42.674;23.350;2023-06-26T03:19:39;94516.81;;;19.55;100.00
23164;BME280;31429;42.674;23.350;2023-06-26T03:20:40;94502.31;;;19.52;100.00
23164;BME280;31429;42.674;23.350;2023-06-26T03:21:40;94509.97;;;19.54;100.00
23164;BME280;31429;42.674;23.350;2023-06-26T03:22:41;94515.97;;;19.54;100.00
23164;BME280;31429;42.674;23.350;2023-06-26T03:23:42;94501.25;;;19.55;100.00
23164;BME280;31429;42.674;23.350;2023-06-26T03:24:44;94503.94;;;19.53;100.00
23164;BME280;31429;42.674;23.350;2023-06-26T03:25:45;94514.69;;;19.48;100.00
23164;BME280;31429;42.674;23.350;2023-06-26T03:26:45;94518.66;;;19.41;100.00
23164;BME280;31429;42.674;23.350;2023-06-26T03:27:46;94513.63;;;19.40;100.00
23164;BME280;31429;42.674;23.350;2023-06-26T03:28:48;94511.13;;;19.38;100.00
23164;BME280;31429;42.674;23.350;2023-06-26T03:29:49;94517.13;;;19.39;100.00
23164;BME280;31429;42.674;23.350;2023-06-26T03:30:49;94520.22;;;19.44;100.00
23164;BME280;31429;42.674;23.350;2023-06-26T03:31:50;94514.22;;;19.43;100.00
23164;BME280;31429;42.674;23.350;2023-06-26T03:32:51;94504.78;;;19.54;100.00
23164;BME280;31429;42.674;23.350;2023-06-26T03:33:51;94518.94;;;19.61;100.00
23164;BME280;31429;42.674;23.350;2023-06-26T03:34:52;94522.00;;;19.55;100.00
23164;BME280;31429;42.674;23.350;2023-06-26T03:35:55;94519.28;;;19.45;100.00
23164;BME280;31429;42.674;23.350;2023-06-26T03:36:56;94525.28;;;19.45;100.00
23164;BME280;31429;42.674;23.350;2023-06-26T03:37:57;94526.00;;;19.47;100.00
23164;BME280;31429;42.674;23.350;2023-06-26T03:38:57;94522.09;;;19.42;100.00
23164;BME280;31429;42.674;23.350;2023-06-26T03:39:58;94516.34;;;19.49;100.00
23164;BME280;31429;42.674;23.350;2023-06-26T03:40:59;94524.69;;;19.42;100.00
23164;BME280;31429;42.674;23.350;2023-06-26T03:41:59;94522.69;;;19.45;100.00
23164;BME280;31429;42.674;23.350;2023-06-26T03:43:01;94523.41;;;19.47;100.00
23164;BME280;31429;42.674;23.350;2023-06-26T03:44:03;94528.81;;;19.56;100.00
23164;BME280;31429;42.674;23.350;2023-06-26T03:45:05;94509.88;;;19.55;100.00
23164;BME280;31429;42.674;23.350;2023-06-26T03:46:06;94521.03;;;19.56;100.00
23164;BME280;31429;42.674;23.350;2023-06-26T03:47:06;94519.75;;;19.50;100.00
23164;BME280;31429;42.674;23.350;2023-06-26T03:48:07;94514.81;;;19.80;100.00
23164;BME280;31429;42.674;23.350;2023-06-26T03:49:08;94525.88;;;19.49;100.00
23164;BME280;31429;42.674;23.350;2023-06-26T03:50:09;94519.16;;;19.46;100.00
23164;BME280;31429;42.674;23.350;2023-06-26T03:51:10;94516.69;;;19.56;100.00
23164;BME280;31429;42.674;23.350;2023-06-26T03:52:11;94509.50;;;19.48;100.00
23164;BME280;31429;42.674;23.350;2023-06-26T03:53:11;94515.63;;;19.47;100.00
23164;BME280;31429;42.674;23.350;2023-06-26T03:54:12;94511.50;;;19.45;100.00
23164;BME280;31429;42.674;23.350;2023-06-26T03:55:13;94512.97;;;19.36;100.00
23164;BME280;31429;42.674;23.350;2023-06-26T03:56:13;94515.72;;;19.35;100.00
23164;BME280;31429;42.674;23.350;2023-06-26T03:57:14;94516.41;;;19.37;100.00
23164;BME280;31429;42.674;23.350;2023-06-26T03:58:15;94515.38;;;19.39;100.00
23164;BME280;31429;42.674;23.350;2023-06-26T03:59:17;94519.84;;;19.37;100.00
23164;BME280;31429;42.674;23.350;2023-06-26T04:00:17;94515.50;;;19.49;100.00
23164;BME280;31429;42.674;23.350;2023-06-26T04:01:18;94509.72;;;19.45;100.00
23164;BME280;31429;42.674;23.350;2023-06-26T04:02:20;94501.59;;;19.61;100.00
23164;BME280;31429;42.674;23.350;2023-06-26T04:03:20;94503.00;;;19.54;100.00
23164;BME280;31429;42.674;23.350;2023-06-26T04:04:21;94509.03;;;19.66;100.00
23164;BME280;31429;42.674;23.350;2023-06-26T04:05:22;94509.50;;;19.71;100.00
23164;BME280;31429;42.674;23.350;2023-06-26T04:06:23;94500.88;;;19.70;100.00
23164;BME280;31429;42.674;23.350;2023-06-26T04:07:23;94514.91;;;19.68;100.00
23164;BME280;31429;42.674;23.350;2023-06-26T04:08:25;94514.00;;;19.58;100.00
23164;BME280;31429;42.674;23.350;2023-06-26T04:09:27;94513.03;;;19.59;100.00
23164;BME280;31429;42.674;23.350;2023-06-26T04:10:28;94506.66;;;19.63;100.00
23164;BME280;31429;42.674;23.350;2023-06-26T04:11:28;94509.38;;;19.61;100.00
23164;BME280;31429;42.674;23.350;2023-06-26T04:12:31;94503.38;;;19.61;100.00
23164;BME280;31429;42.674;23.350;2023-06-26T04:13:31;94505.75;;;19.64;100.00
23164;BME280;31429;42.674;23.350;2023-06-26T04:14:33;94504.22;;;19.72;100.00
23164;BME280;31429;42.674;23.350;2023-06-26T04:15:34;94506.78;;;19.83;100.00
23164;BME280;31429;42.674;23.350;2023-06-26T04:16:34;94507.34;;;19.87;100.00
23164;BME280;31429;42.674;23.350;2023-06-26T04:17:35;94510.78;;;19.87;100.00
23164;BME280;31429;42.674;23.350;2023-06-26T04:18:36;94518.91;;;19.94;100.00
23164;BME280;31429;42.674;23.350;2023-06-26T04:19:36;94521.97;;;19.99;100.00
23164;BME280;31429;42.674;23.350;2023-06-26T04:20:39;94514.31;;;19.97;100.00
23164;BME280;31429;42.674;23.350;2023-06-26T04:21:40;94509.47;;;20.04;100.00
23164;BME280;31429;42.674;23.350;2023-06-26T04:22:41;94510.41;;;20.14;100.00
23164;BME280;31429;42.674;23.350;2023-06-26T04:23:41;94517.97;;;20.06;100.00
23164;BME280;31429;42.674;23.350;2023-06-26T04:24:42;94521.28;;;19.97;100.00
23164;BME280;31429;42.674;23.350;2023-06-26T04:25:43;94516.19;;;19.95;100.00
23164;BME280;31429;42.674;23.350;2023-06-26T04:26:44;94518.91;;;19.94;100.00
23164;BME280;31429;42.674;23.350;2023-06-26T04:27:46;94520.22;;;19.99;100.00
23164;BME280;31429;42.674;23.350;2023-06-26T04:28:47;94525.63;;;20.07;100.00
23164;BME280;31429;42.674;23.350;2023-06-26T04:29:49;94525.16;;;20.14;100.00
23164;BME280;31429;42.674;23.350;2023-06-26T04:30:49;94527.16;;;20.10;100.00
23164;BME280;31429;42.674;23.350;2023-06-26T04:31:50;94526.34;;;19.98;100.00
23164;BME280;31429;42.674;23.350;2023-06-26T04:32:51;94528.34;;;20.06;100.00
23164;BME280;31429;42.674;23.350;2023-06-26T04:33:51;94523.47;;;20.24;100.00
23164;BME280;31429;42.674;23.350;2023-06-26T04:34:55;94530.47;;;20.34;100.00
23164;BME280;31429;42.674;23.350;2023-06-26T04:35:55;94523.50;;;20.35;100.00
23164;BME280;31429;42.674;23.350;2023-06-26T04:36:56;94535.06;;;20.20;100.00
23164;BME280;31429;42.674;23.350;2023-06-26T04:37:57;94532.72;;;20.28;100.00
23164;BME280;31429;42.674;23.350;2023-06-26T04:38:58;94526.28;;;20.54;100.00
23164;BME280;31429;42.674;23.350;2023-06-26T04:39:59;94534.09;;;20.43;100.00
23164;BME280;31429;42.674;23.350;2023-06-26T04:41:00;94528.16;;;20.52;100.00
23164;BME280;31429;42.674;23.350;2023-06-26T04:42:00;94536.59;;;20.33;100.00
23164;BME280;31429;42.674;23.350;2023-06-26T04:43:01;94532.69;;;20.39;100.00
23164;BME280;31429;42.674;23.350;2023-06-26T04:44:02;94532.88;;;20.47;100.00
23164;BME280;31429;42.674;23.350;2023-06-26T04:45:05;94535.44;;;20.58;100.00
23164;BME280;31429;42.674;23.350;2023-06-26T04:46:05;94519.41;;;20.85;100.00
23164;BME280;31429;42.674;23.350;2023-06-26T04:47:06;94528.59;;;20.68;100.00
23164;BME280;31429;42.674;23.350;2023-06-26T04:48:07;94528.00;;;20.96;100.00
23164;BME280;31429;42.674;23.350;2023-06-26T04:49:09;94527.78;;;20.88;100.00
23164;BME280;31429;42.674;23.350;2023-06-26T04:50:09;94537.75;;;20.72;100.00
23164;BME280;31429;42.674;23.350;2023-06-26T04:51:10;94539.03;;;20.89;100.00
23164;BME280;31429;42.674;23.350;2023-06-26T04:52:11;94517.09;;;21.23;100.00
23164;BME280;31429;42.674;23.350;2023-06-26T04:53:13;94532.22;;;20.77;100.00
23164;BME280;31429;42.674;23.350;2023-06-26T04:54:14;94528.44;;;20.70;100.00
23164;BME280;31429;42.674;23.350;2023-06-26T04:55:15;94531.19;;;20.68;100.00
23164;BME280;31429;42.674;23.350;2023-06-26T04:56:15;94529.13;;;20.83;100.00
23164;BME280;31429;42.674;23.350;2023-06-26T04:57:16;94526.53;;;20.83;100.00
23164;BME280;31429;42.674;23.350;2023-06-26T04:58:18;94531.09;;;20.90;100.00
23164;BME280;31429;42.674;23.350;2023-06-26T04:59:19;94520.72;;;21.32;100.00
23164;BME280;31429;42.674;23.350;2023-06-26T05:00:21;94529.91;;;21.15;100.00
23164;BME280;31429;42.674;23.350;2023-06-26T05:01:22;94533.59;;;21.12;100.00
23164;BME280;31429;42.674;23.350;2023-06-26T05:02:23;94532.38;;;21.37;100.00
23164;BME280;31429;42.674;23.350;2023-06-26T05:03:24;94532.03;;;21.21;100.00
23164;BME280;31429;42.674;23.350;2023-06-26T05:04:25;94534.22;;;21.05;100.00
23164;BME280;31429;42.674;23.350;2023-06-26T05:05:25;94537.28;;;21.10;100.00
23164;BME280;31429;42.674;23.350;2023-06-26T05:06:26;94537.47;;;21.39;100.00
23164;BME280;31429;42.674;23.350;2023-06-26T05:07:27;94537.81;;;21.45;100.00
23164;BME280;31429;42.674;23.350;2023-06-26T05:08:27;94542.53;;;21.40;100.00
23164;BME280;31429;42.674;23.350;2023-06-26T05:09:29;94537.16;;;21.32;100.00
23164;BME280;31429;42.674;23.350;2023-06-26T05:10:30;94536.19;;;21.12;100.00
23164;BME280;31429;42.674;23.350;2023-06-26T05:11:30;94551.19;;;20.88;100.00
23164;BME280;31429;42.674;23.350;2023-06-26T05:12:31;94534.50;;;21.23;100.00
23164;BME280;31429;42.674;23.350;2023-06-26T05:13:32;94547.56;;;21.00;100.00
23164;BME280;31429;42.674;23.350;2023-06-26T05:14:32;94554.38;;;20.81;100.00
23164;BME280;31429;42.674;23.350;2023-06-26T05:15:34;94547.94;;;20.64;100.00
23164;BME280;31429;42.674;23.350;2023-06-26T05:16:35;94546.44;;;20.61;100.00
23164;BME280;31429;42.674;23.350;2023-06-26T05:17:36;94551.28;;;20.55;100.00